createdAt,value
2018-04-01T00:00:02.372Z,80.20
2018-04-01T00:02:30.237Z,79.80
2018-04-01T00:05:04.960Z,80.50
2018-04-01T00:07:34.193Z,80.30
2018-04-01T00:10:07.819Z,80.40
2018-04-01T00:12:36.464Z,80.60
2018-04-01T00:15:12.554Z,81.10
2018-04-01T00:17:41.222Z,81.20
2018-04-01T00:20:14.945Z,80.60
2018-04-01T00:22:44.045Z,80.80
2018-04-01T00:25:17.240Z,80.80
2018-04-01T00:27:45.924Z,82.20
2018-04-01T00:30:20.079Z,81.90
2018-04-01T00:32:47.979Z,81.90
2018-04-01T00:35:21.992Z,81.70
2018-04-01T00:37:49.914Z,81.70
2018-04-01T00:40:23.959Z,81.60
2018-04-01T00:42:52.005Z,81.60
2018-04-01T00:45:26.734Z,81.60
2018-04-01T00:47:54.789Z,81.90
2018-04-01T00:50:28.980Z,82.50
2018-04-01T00:52:57.098Z,81.40
2018-04-01T00:55:30.727Z,81.90
2018-04-01T00:57:58.704Z,82.20
2018-04-01T01:00:33.271Z,81.20
2018-04-01T01:03:01.167Z,81.20
2018-04-01T01:08:02.802Z,82.00
2018-04-01T01:10:37.044Z,82.30
2018-04-01T01:13:05.055Z,81.80
2018-04-01T01:15:40.563Z,81.70
2018-04-01T01:18:09.801Z,81.60
2018-04-01T01:20:43.118Z,81.40
2018-04-01T01:23:11.181Z,81.30
2018-04-01T01:28:12.994Z,82.80
2018-04-01T01:33:15.325Z,83.10
2018-04-01T01:35:51.695Z,82.80
2018-04-01T01:38:20.267Z,82.80
2018-04-01T01:40:55.476Z,83.50
2018-04-01T01:43:23.557Z,83.50
2018-04-01T01:45:58.244Z,83.30
2018-04-01T01:48:26.708Z,82.40
2018-04-01T01:51:00.766Z,82.40
2018-04-01T01:53:28.821Z,81.70
2018-04-01T01:56:04.363Z,82.60
2018-04-01T01:58:32.339Z,82.60
2018-04-01T02:03:35.011Z,82.40
2018-04-01T02:06:03.133Z,82.50
2018-04-01T02:08:31.175Z,82.80
2018-04-01T02:10:59.524Z,82.20
2018-04-01T02:13:28.174Z,83.30
2018-04-01T02:15:57.207Z,82.70
2018-04-01T02:18:25.429Z,82.70
2018-04-01T02:20:53.379Z,82.30
2018-04-01T02:23:21.506Z,83.10
2018-04-01T02:25:50.032Z,81.00
2018-04-01T02:28:23.056Z,81.70
2018-04-01T02:30:51.067Z,80.50
2018-04-01T02:33:24.662Z,80.30
2018-04-01T02:35:52.817Z,81.00
2018-04-01T02:38:27.592Z,80.70
2018-04-01T02:40:56.126Z,80.80
2018-04-01T02:43:29.459Z,79.40
2018-04-01T02:45:57.635Z,80.90
2018-04-01T02:48:32.503Z,80.70
2018-04-01T02:51:01.384Z,80.60
2018-04-01T02:53:36.135Z,80.50
2018-04-01T02:56:04.089Z,80.50
2018-04-01T02:58:37.812Z,80.90
2018-04-01T03:01:06.290Z,80.90
2018-04-01T03:03:41.017Z,80.20
2018-04-01T03:06:09.455Z,80.80
2018-04-01T03:08:44.013Z,83.80
2018-04-01T03:11:12.263Z,83.80
2018-04-01T03:13:46.747Z,83.70
2018-04-01T03:16:15.428Z,82.50
2018-04-01T03:18:50.225Z,82.90
2018-04-01T03:21:18.373Z,81.70
2018-04-01T03:23:54.946Z,81.90
2018-04-01T03:26:24.030Z,82.30
2018-04-01T03:28:55.672Z,82.40
2018-04-01T03:31:24.071Z,82.50
2018-04-01T03:33:58.942Z,82.00
2018-04-01T03:36:27.014Z,82.80
2018-04-01T03:39:01.314Z,82.00
2018-04-01T03:41:29.334Z,83.30
2018-04-01T03:44:04.469Z,82.20
2018-04-01T03:46:33.060Z,81.90
2018-04-01T03:49:10.118Z,82.00
2018-04-01T03:51:38.125Z,82.00
2018-04-01T03:54:19.868Z,82.50
2018-04-01T03:56:48.303Z,83.10
2018-04-01T03:59:16.502Z,82.70
2018-04-01T04:01:44.417Z,83.30
2018-04-01T04:04:20.715Z,83.10
2018-04-01T04:06:48.740Z,83.60
2018-04-01T04:09:38.638Z,85.00
2018-04-01T04:12:08.008Z,84.20
2018-04-01T04:14:36.093Z,84.30
2018-04-01T04:17:04.402Z,84.50
2018-04-01T04:19:34.318Z,85.60
2018-04-01T04:22:02.881Z,85.60
2018-04-01T04:24:32.704Z,85.00
2018-04-01T04:27:01.836Z,84.80
2018-04-01T04:29:34.817Z,84.30
2018-04-01T04:32:03.019Z,84.30
2018-04-01T04:34:31.072Z,84.70
2018-04-01T04:36:59.655Z,84.20
2018-04-01T04:39:31.490Z,84.50
2018-04-01T04:42:00.619Z,83.60
2018-04-01T04:44:34.425Z,83.60
2018-04-01T04:47:42.420Z,83.70
2018-04-01T04:50:15.150Z,83.50
2018-04-01T04:52:44.410Z,83.60
2018-04-01T04:55:20.479Z,83.60
2018-04-01T04:57:48.573Z,83.80
2018-04-01T05:00:17.176Z,83.20
2018-04-01T05:02:45.487Z,83.20
2018-04-01T05:05:14.583Z,83.10
2018-04-01T05:07:45.799Z,82.10
2018-04-01T05:10:47.275Z,81.90
2018-04-01T05:13:26.542Z,81.60
2018-04-01T05:15:55.228Z,83.20
2018-04-01T05:18:23.259Z,84.00
2018-04-01T05:20:54.819Z,83.50
2018-04-01T05:23:24.518Z,83.80
2018-04-01T05:25:57.908Z,83.80
2018-04-01T05:28:27.442Z,84.00
2018-04-01T05:31:01.980Z,82.20
2018-04-01T05:33:33.599Z,82.40
2018-04-01T05:36:15.659Z,82.40
2018-04-01T05:38:44.434Z,83.30
2018-04-01T05:41:12.612Z,83.90
2018-04-01T05:44:21.285Z,83.60
2018-04-01T05:46:50.252Z,83.50
2018-04-01T05:49:32.464Z,83.50
2018-04-01T05:54:43.705Z,82.20
2018-04-01T05:57:33.944Z,83.00
2018-04-01T06:00:02.024Z,83.30
2018-04-01T06:02:30.482Z,82.10
2018-04-01T06:04:58.507Z,81.30
2018-04-01T06:07:26.374Z,80.00
2018-04-01T06:09:54.603Z,81.40
2018-04-01T06:12:24.290Z,81.00
2018-04-01T06:14:52.461Z,80.00
2018-04-01T06:17:26.090Z,83.10
2018-04-01T06:19:54.058Z,83.10
2018-04-01T06:22:28.331Z,82.40
2018-04-01T06:24:57.909Z,81.60
2018-04-01T06:27:30.617Z,81.70
2018-04-01T06:29:58.835Z,82.40
2018-04-01T06:32:32.574Z,82.30
2018-04-01T06:35:00.736Z,82.50
2018-04-01T06:37:34.848Z,83.50
2018-04-01T06:40:03.132Z,82.40
2018-04-01T06:42:39.933Z,83.90
2018-04-01T06:45:19.048Z,83.90
2018-04-01T06:47:47.159Z,83.00
2018-04-01T06:50:16.552Z,82.60
2018-04-01T06:52:45.476Z,84.30
2018-04-01T06:55:30.720Z,84.30
2018-04-01T06:57:58.663Z,83.70
2018-04-01T07:00:26.772Z,83.90
2018-04-01T07:02:55.114Z,83.00
2018-04-01T07:05:23.900Z,84.00
2018-04-01T07:07:52.679Z,84.40
2018-04-01T07:10:59.663Z,84.20
2018-04-01T07:13:27.642Z,83.00
2018-04-01T07:15:56.476Z,83.10
2018-04-01T07:18:24.714Z,83.10
2018-04-01T07:20:59.572Z,84.30
2018-04-01T07:23:27.666Z,84.30
2018-04-01T07:26:01.488Z,84.30
2018-04-01T07:28:29.391Z,83.20
2018-04-01T07:31:03.750Z,83.90
2018-04-01T07:33:32.061Z,83.90
2018-04-01T07:36:12.211Z,82.70
2018-04-01T07:38:40.560Z,82.60
2018-04-01T07:44:06.415Z,83.80
2018-04-01T07:46:40.344Z,83.70
2018-04-01T07:49:14.807Z,83.30
2018-04-01T07:51:42.940Z,83.30
2018-04-01T07:54:17.051Z,83.50
2018-04-01T07:56:45.277Z,82.00
2018-04-01T07:59:21.243Z,81.60
2018-04-01T08:01:49.112Z,82.20
2018-04-01T08:04:22.386Z,82.80
2018-04-01T08:06:50.285Z,82.10
2018-04-01T08:09:24.582Z,82.80
2018-04-01T08:11:52.511Z,83.10
2018-04-01T08:14:26.838Z,81.60
2018-04-01T08:16:54.966Z,81.60
2018-04-01T08:19:28.983Z,81.50
2018-04-01T08:21:56.733Z,81.40
2018-04-01T08:24:31.414Z,81.60
2018-04-01T08:26:59.251Z,82.30
2018-04-01T08:29:33.812Z,81.40
2018-04-01T08:32:02.060Z,81.30
2018-04-01T08:34:35.469Z,81.20
2018-04-01T08:37:03.575Z,81.00
2018-04-01T08:39:38.659Z,81.00
2018-04-01T08:42:06.544Z,80.50
2018-04-01T08:47:08.499Z,79.10
2018-04-01T08:52:10.895Z,78.60
2018-04-01T08:57:13.868Z,77.30
2018-04-01T08:59:41.987Z,76.20
2018-04-01T09:02:10.009Z,76.70
2018-04-01T09:04:39.003Z,78.10
2018-04-01T09:07:07.919Z,76.30
2018-04-01T09:09:36.156Z,76.30
2018-04-01T09:12:03.911Z,75.70
2018-04-01T09:14:32.262Z,78.00
2018-04-01T09:17:02.624Z,77.30
2018-04-01T09:19:31.183Z,77.00
2018-04-01T09:22:04.881Z,77.00
2018-04-01T09:24:33.437Z,76.60
2018-04-01T09:27:07.352Z,78.00
2018-04-01T09:29:35.158Z,79.40
2018-04-01T09:34:38.343Z,79.50
2018-04-01T09:39:41.028Z,79.10
2018-04-01T09:42:15.890Z,80.40
2018-04-01T09:44:43.809Z,80.30
2018-04-01T09:47:18.105Z,78.60
2018-04-01T09:49:45.948Z,78.00
2018-04-01T09:52:20.328Z,78.20
2018-04-01T09:54:49.227Z,78.70
2018-04-01T09:59:50.833Z,79.00
2018-04-01T10:02:27.637Z,77.40
2018-04-01T10:05:05.647Z,77.30
2018-04-01T10:07:35.438Z,76.40
2018-04-01T10:10:04.809Z,76.10
2018-04-01T10:12:34.190Z,75.60
2018-04-01T10:15:03.763Z,76.50
2018-04-01T10:17:33.595Z,75.70
2018-04-01T10:20:03.869Z,76.10
2018-04-01T10:22:36.452Z,76.10
2018-04-01T10:25:05.882Z,74.30
2018-04-01T10:27:38.690Z,74.10
2018-04-01T10:30:09.271Z,74.20
2018-04-01T10:32:41.708Z,73.30
2018-04-01T10:35:11.238Z,74.30
2018-04-01T10:37:44.496Z,74.10
2018-04-01T10:40:13.695Z,74.10
2018-04-01T10:42:46.894Z,74.30
2018-04-01T10:45:16.492Z,73.50
2018-04-01T10:47:51.880Z,73.30
2018-04-01T10:50:21.745Z,73.80
2018-04-01T10:52:55.240Z,74.00
2018-04-01T10:55:23.245Z,74.10
2018-04-01T10:57:55.932Z,74.40
2018-04-01T11:00:23.927Z,72.60
2018-04-01T11:02:58.115Z,74.20
2018-04-01T11:05:26.083Z,73.20
2018-04-01T11:08:02.766Z,74.20
2018-04-01T11:10:31.118Z,74.20
2018-04-01T11:13:06.249Z,74.50
2018-04-01T11:15:34.821Z,76.40
2018-04-01T11:18:09.938Z,75.00
2018-04-01T11:20:37.859Z,75.00
2018-04-01T11:23:13.447Z,74.50
2018-04-01T11:25:41.512Z,76.20
2018-04-01T11:28:16.567Z,74.60
2018-04-01T11:30:44.507Z,73.00
2018-04-01T11:33:19.462Z,73.70
2018-04-01T11:35:48.025Z,74.40
2018-04-01T11:38:21.799Z,74.40
2018-04-01T11:40:50.215Z,75.30
2018-04-01T11:43:23.087Z,74.50
2018-04-01T11:45:50.975Z,74.50
2018-04-01T11:48:26.455Z,74.80
2018-04-01T11:50:54.475Z,73.20
2018-04-01T11:53:28.316Z,72.70
2018-04-01T11:55:57.193Z,74.50
2018-04-01T11:58:31.363Z,74.50
2018-04-01T12:00:59.190Z,74.60
2018-04-01T12:03:33.870Z,73.70
2018-04-01T12:06:01.737Z,73.70
2018-04-01T12:08:36.888Z,71.90
2018-04-01T12:11:05.554Z,72.40
2018-04-01T12:13:41.750Z,72.40
2018-04-01T12:16:09.702Z,73.50
2018-04-01T12:18:43.891Z,72.90
2018-04-01T12:21:11.807Z,72.90
2018-04-01T12:23:46.662Z,74.40
2018-04-01T12:26:14.759Z,74.50
2018-04-01T12:28:50.153Z,72.00
2018-04-01T12:31:19.107Z,72.30
2018-04-01T12:33:54.251Z,72.40
2018-04-01T12:36:22.028Z,69.10
2018-04-01T12:38:57.379Z,70.20
2018-04-01T12:41:26.000Z,67.80
2018-04-01T12:44:00.395Z,67.80
2018-04-01T12:46:28.167Z,67.40
2018-04-01T12:49:04.442Z,67.90
2018-04-01T12:51:32.241Z,67.80
2018-04-01T12:54:07.391Z,68.80
2018-04-01T12:56:35.627Z,69.00
2018-04-01T12:59:11.912Z,69.90
2018-04-01T13:01:39.741Z,67.90
2018-04-01T13:04:14.595Z,67.70
2018-04-01T13:06:42.616Z,67.20
2018-04-01T13:09:16.355Z,61.10
2018-04-01T13:11:44.255Z,61.10
2018-04-01T13:14:18.613Z,61.90
2018-04-01T13:16:46.876Z,64.10
2018-04-01T13:19:21.035Z,63.30
2018-04-01T13:21:48.895Z,63.30
2018-04-01T13:24:23.153Z,65.60
2018-04-01T13:26:51.337Z,65.80
2018-04-01T13:29:25.994Z,66.60
2018-04-01T13:31:53.818Z,66.40
2018-04-01T13:34:29.514Z,67.90
2018-04-01T13:36:58.252Z,68.70
2018-04-01T13:39:32.184Z,68.60
2018-04-01T13:42:00.328Z,68.50
2018-04-01T13:44:35.044Z,68.90
2018-04-01T13:47:02.888Z,68.40
2018-04-01T13:49:39.157Z,68.50
2018-04-01T13:52:06.850Z,68.50
2018-04-01T13:54:40.857Z,68.00
2018-04-01T13:57:08.643Z,67.50
2018-04-01T13:59:42.734Z,67.70
2018-04-01T14:02:10.764Z,68.70
2018-04-01T14:07:12.727Z,68.60
2018-04-01T14:09:40.712Z,70.70
2018-04-01T14:12:09.360Z,72.10
2018-04-01T14:14:37.851Z,72.20
2018-04-01T14:17:07.150Z,72.20
2018-04-01T14:19:34.889Z,72.40
2018-04-01T14:22:03.386Z,72.70
2018-04-01T14:24:32.255Z,73.20
2018-04-01T14:27:05.660Z,73.20
2018-04-01T14:29:33.511Z,73.10
2018-04-01T14:32:01.494Z,74.00
2018-04-01T14:34:30.090Z,74.20
2018-04-01T14:36:58.085Z,74.20
2018-04-01T14:39:25.882Z,74.20
2018-04-01T14:41:53.794Z,74.50
2018-04-01T14:44:21.602Z,74.30
2018-04-01T14:46:49.373Z,76.10
2018-04-01T14:49:21.320Z,74.10
2018-04-01T14:51:49.042Z,73.70
2018-04-01T14:54:22.931Z,74.50
2018-04-01T14:56:50.974Z,73.10
2018-04-01T14:59:25.395Z,74.30
2018-04-01T15:01:53.124Z,74.00
2018-04-01T15:04:26.884Z,74.10
2018-04-01T15:06:54.644Z,74.10
2018-04-01T15:09:28.840Z,74.10
2018-04-01T15:11:58.584Z,74.20
2018-04-01T15:14:33.136Z,75.00
2018-04-01T15:17:00.951Z,75.00
2018-04-01T15:19:34.821Z,75.90
2018-04-01T15:22:02.687Z,75.90
2018-04-01T15:27:05.163Z,76.40
2018-04-01T15:32:07.104Z,76.60
2018-04-01T15:34:35.684Z,76.90
2018-04-01T15:37:03.711Z,76.90
2018-04-01T15:39:32.268Z,77.30
2018-04-01T15:42:00.240Z,77.20
2018-04-01T15:44:28.026Z,77.30
2018-04-01T15:46:56.087Z,76.60
2018-04-01T15:49:26.382Z,76.80
2018-04-01T15:51:55.092Z,76.80
2018-04-01T15:54:22.905Z,76.80
2018-04-01T15:57:00.272Z,75.20
2018-04-01T15:59:29.673Z,76.60
2018-04-01T16:02:02.609Z,76.60
2018-04-01T16:04:30.751Z,76.60
2018-04-01T16:07:05.751Z,74.00
2018-04-01T16:09:33.620Z,74.00
2018-04-01T16:12:08.257Z,74.00
2018-04-01T16:14:37.220Z,74.00
2018-04-01T16:17:11.341Z,74.10
2018-04-01T16:19:39.722Z,74.60
2018-04-01T16:22:14.236Z,75.60
2018-04-01T16:24:42.111Z,75.60
2018-04-01T16:27:16.125Z,75.40
2018-04-01T16:32:20.105Z,75.00
2018-04-01T16:34:47.877Z,75.60
2018-04-01T16:37:21.740Z,75.70
2018-04-01T16:39:49.698Z,75.60
2018-04-01T16:42:23.681Z,74.50
2018-04-01T16:44:51.716Z,74.90
2018-04-01T16:47:25.914Z,74.70
2018-04-01T16:49:54.533Z,74.10
2018-04-01T16:52:28.530Z,74.10
2018-04-01T16:54:56.694Z,74.10
2018-04-01T16:57:32.209Z,74.00
2018-04-01T16:59:59.992Z,74.00
2018-04-01T17:02:35.763Z,74.10
2018-04-01T17:05:03.550Z,73.80
2018-04-01T17:07:38.502Z,74.00
2018-04-01T17:10:06.520Z,74.00
2018-04-01T17:12:41.908Z,74.00
2018-04-01T17:15:10.476Z,74.00
2018-04-01T17:17:42.177Z,74.00
2018-04-01T17:20:10.902Z,73.90
2018-04-01T17:22:43.709Z,73.90
2018-04-01T17:25:11.541Z,74.00
2018-04-01T17:27:39.596Z,74.10
2018-04-01T17:30:08.148Z,74.00
2018-04-01T17:32:35.936Z,74.00
2018-04-01T17:35:05.011Z,74.00
2018-04-01T17:37:32.713Z,74.00
2018-04-01T17:40:00.454Z,74.00
2018-04-01T17:42:29.139Z,74.00
2018-04-01T17:45:05.524Z,75.10
2018-04-01T17:47:33.321Z,75.10
2018-04-01T17:50:09.383Z,74.60
2018-04-01T17:52:37.085Z,74.30
2018-04-01T17:57:39.213Z,74.00
2018-04-01T18:00:06.907Z,74.60
2018-04-01T18:02:34.672Z,74.00
2018-04-01T18:05:02.679Z,74.00
2018-04-01T18:07:30.443Z,73.90
2018-04-01T18:10:00.032Z,74.10
2018-04-01T18:12:28.839Z,74.00
2018-04-01T18:14:56.595Z,74.00
2018-04-01T18:17:24.354Z,74.30
2018-04-01T18:19:52.379Z,75.70
2018-04-01T18:22:26.285Z,74.90
2018-04-01T18:24:54.145Z,74.70
2018-04-01T18:29:56.422Z,75.00
2018-04-01T18:34:59.376Z,75.50
2018-04-01T18:40:02.078Z,74.40
2018-04-01T18:42:30.592Z,74.10
2018-04-01T18:45:04.999Z,74.10
2018-04-01T18:47:34.536Z,75.80
2018-04-01T18:50:03.400Z,75.80
2018-04-01T18:52:31.582Z,75.10
2018-04-01T18:54:59.455Z,75.00
2018-04-01T18:57:27.270Z,73.90
2018-04-01T18:59:55.126Z,73.80
2018-04-01T19:02:23.596Z,74.70
2018-04-01T19:04:58.902Z,74.70
2018-04-01T19:07:26.939Z,74.10
2018-04-01T19:10:01.769Z,74.70
2018-04-01T19:12:29.675Z,74.80
2018-04-01T19:15:10.812Z,73.40
2018-04-01T19:17:40.230Z,74.00
2018-04-01T19:20:09.939Z,73.60
2018-04-01T19:22:39.346Z,73.30
2018-04-01T19:25:17.113Z,73.00
2018-04-01T19:27:46.516Z,73.10
2018-04-01T19:30:15.865Z,72.50
2018-04-01T19:32:45.240Z,73.10
2018-04-01T19:35:18.670Z,73.40
2018-04-01T19:37:48.005Z,73.10
2018-04-01T19:40:21.188Z,73.70
2018-04-01T19:42:50.819Z,73.40
2018-04-01T19:45:21.969Z,72.60
2018-04-01T19:47:51.293Z,73.30
2018-04-01T19:50:28.008Z,73.00
2018-04-01T19:52:58.163Z,72.60
2018-04-01T19:55:27.401Z,72.60
2018-04-01T19:57:57.062Z,73.20
2018-04-01T20:00:29.464Z,72.50
2018-04-01T20:02:58.717Z,73.40
2018-04-01T20:05:35.227Z,73.00
2018-04-01T20:08:05.430Z,73.20
2018-04-01T20:10:34.844Z,73.00
2018-04-01T20:13:04.389Z,73.80
2018-04-01T20:15:36.893Z,73.20
2018-04-01T20:18:06.323Z,73.10
2018-04-01T20:20:37.849Z,73.30
2018-04-01T20:23:07.074Z,73.90
2018-04-01T20:25:42.973Z,72.50
2018-04-01T20:28:13.262Z,73.10
2018-04-01T20:30:43.991Z,73.00
2018-04-01T20:33:13.296Z,72.50
2018-04-01T20:35:50.687Z,73.30
2018-04-01T20:38:19.999Z,72.50
2018-04-01T20:40:51.537Z,72.60
2018-04-01T20:43:20.791Z,73.10
2018-04-01T20:45:57.983Z,73.50
2018-04-01T20:48:27.965Z,73.80
2018-04-01T20:50:57.946Z,73.50
2018-04-01T20:53:27.203Z,73.50
2018-04-01T20:56:03.996Z,73.50
2018-04-01T20:58:33.300Z,73.10
2018-04-01T21:01:07.190Z,73.60
2018-04-01T21:03:36.803Z,73.30
2018-04-01T21:06:11.669Z,73.20
2018-04-01T21:08:40.860Z,73.20
2018-04-01T21:11:15.319Z,73.20
2018-04-01T21:13:44.734Z,72.70
2018-04-01T21:16:17.863Z,73.50
2018-04-01T21:18:48.490Z,74.10
2018-04-01T21:21:22.307Z,73.40
2018-04-01T21:23:51.691Z,74.00
2018-04-01T21:26:22.812Z,73.30
2018-04-01T21:28:52.039Z,73.40
2018-04-01T21:31:24.835Z,74.00
2018-04-01T21:33:54.419Z,74.10
2018-04-01T21:36:27.291Z,73.80
2018-04-01T21:38:56.824Z,74.20
2018-04-01T21:41:29.918Z,75.10
2018-04-01T21:43:59.491Z,75.50
2018-04-01T21:46:36.557Z,74.00
2018-04-01T21:49:05.961Z,74.00
2018-04-01T21:51:35.316Z,74.80
2018-04-01T21:54:05.466Z,74.10
2018-04-01T21:56:38.445Z,75.20
2018-04-01T21:59:08.621Z,75.20
2018-04-01T22:01:42.090Z,75.20
2018-04-01T22:04:12.925Z,74.60
2018-04-01T22:06:47.285Z,75.60
2018-04-01T22:09:16.639Z,75.50
2018-04-01T22:11:48.573Z,73.40
2018-04-01T22:14:18.708Z,74.60
2018-04-01T22:16:51.243Z,74.60
2018-04-01T22:19:21.027Z,74.10
2018-04-01T22:21:54.164Z,74.10
2018-04-01T22:24:24.243Z,75.00
2018-04-01T22:26:58.928Z,75.00
2018-04-01T22:29:28.246Z,75.10
2018-04-01T22:32:03.504Z,75.70
2018-04-01T22:34:32.872Z,75.10
2018-04-01T22:37:04.347Z,74.50
2018-04-01T22:39:33.830Z,75.30
2018-04-01T22:42:10.978Z,75.40
2018-04-01T22:44:40.549Z,74.80
2018-04-01T22:47:12.973Z,74.50
2018-04-01T22:49:44.159Z,73.60
2018-04-01T22:52:13.757Z,73.60
2018-04-01T22:54:43.052Z,73.60
2018-04-01T22:57:19.801Z,73.60
2018-04-01T22:59:49.439Z,73.50
2018-04-01T23:02:19.286Z,74.30
2018-04-01T23:04:48.833Z,75.30
2018-04-01T23:07:26.346Z,74.20
2018-04-01T23:09:56.429Z,75.10
2018-04-01T23:12:27.333Z,75.40
2018-04-01T23:14:57.058Z,75.40
2018-04-01T23:17:26.529Z,74.70
2018-04-01T23:19:56.842Z,74.10
2018-04-01T23:22:29.023Z,74.20
2018-04-01T23:24:58.548Z,74.80
2018-04-01T23:27:29.465Z,74.40
2018-04-01T23:29:59.526Z,75.20
2018-04-01T23:32:31.542Z,76.10
2018-04-01T23:35:00.896Z,76.00
2018-04-01T23:37:38.387Z,75.70
2018-04-01T23:40:07.828Z,75.60
2018-04-01T23:42:38.044Z,75.90
2018-04-01T23:45:07.505Z,75.70
2018-04-01T23:47:45.821Z,75.60
2018-04-01T23:50:15.239Z,75.70
2018-04-01T23:52:44.567Z,76.00
2018-04-01T23:55:13.812Z,76.00
2018-04-01T23:57:51.274Z,76.60
